Bear Lake, Minnesota
Current Conditions -  °F | °C
As of 1:15 AM on Wednesday 22 Oct 2014 (Local Time) from KCQM Reporting Station
Clear Clear  
Wind Chill: 32°   Ceiling: Unl
Heat Index: 37°   Visibility: 10mi
Dew Point: 36°   Wind: 7mph
Humidity: 93%   Direction: 130°SE
Pressure: 30.15"   Gusts: NA
Location:  47.8142°N, 92.9861°W
Report Text: KCQM 220615Z AUTO 13006KT 10SM CLR 03/02 A3015 RMK AO2
Loading
Personal Weather Stations






























Interactive Weather Map
Tropical Storm Tracking
New forecast layout! Learn more

10-Day Weather Forecast

Advertisements
Track Severe Weather on mobile